Time;durP1;ratioP1;P1;durP2;ratioP2;P2;SDS_P1;SDS_P2;PMS_P1;PMS_P2;Temp;Humidity;BMP_temperature;BMP_pressure;BME280_temperature;BME280_humidity;BME280_pressure;Samples;Min_cycle;Max_cycle;Signal;HPM_P1;HPM_P2
2021/12/08 00:01:10;;;;;;;37.85;19.95;;;;;;;-0.47;93.98;100471.75;5052259;28;20053;-84
2021/12/08 00:03:39;;;;;;;36.80;18.67;;;;;;;-0.46;93.55;100466.16;5055114;28;20044;-83
2021/12/08 00:06:07;;;;;;;33.38;17.85;;;;;;;-0.55;94.19;100464.72;5072005;28;20497;-83
2021/12/08 00:08:35;;;;;;;39.33;18.85;;;;;;;-0.61;92.93;100462.88;5071607;28;20039;-83
2021/12/08 00:13:51;;;;;;;36.78;17.23;;;;;;;-0.64;93.77;100458.72;5053815;28;20052;-83
2021/12/08 00:16:19;;;;;;;28.65;16.73;;;;;;;-0.70;92.68;100464.94;5071716;28;20037;-83
2021/12/08 00:18:49;;;;;;;29.80;16.33;;;;;;;-0.72;92.87;100470.53;5071258;28;20037;-83
2021/12/08 00:21:17;;;;;;;28.73;16.45;;;;;;;-0.87;93.98;100464.53;5066310;28;20055;-83
2021/12/08 00:23:46;;;;;;;34.10;16.25;;;;;;;-0.96;94.34;100461.22;5060654;28;20049;-83
2021/12/08 00:26:14;;;;;;;29.48;15.88;;;;;;;-1.05;94.47;100457.91;5066675;28;20495;-83
2021/12/08 00:28:42;;;;;;;33.03;17.40;;;;;;;-0.99;95.07;100461.63;5063805;28;20060;-83
2021/12/08 00:31:10;;;;;;;31.05;17.15;;;;;;;-1.00;95.44;100454.59;5054104;28;20051;-82
2021/12/08 00:33:41;;;;;;;30.17;15.77;;;;;;;-1.14;95.92;100443.03;5071989;28;20518;-82
2021/12/08 00:36:14;;;;;;;32.40;16.08;;;;;;;-1.16;96.36;100445.94;5071912;28;20037;-83
2021/12/08 00:38:42;;;;;;;27.88;14.80;;;;;;;-1.19;96.73;100434.78;5071493;28;20049;-83
2021/12/08 00:41:11;;;;;;;29.83;16.25;;;;;;;-1.15;97.12;100449.44;5051347;28;20695;-83
2021/12/08 00:43:40;;;;;;;31.42;15.85;;;;;;;-1.14;97.41;100451.91;5060832;28;20045;-83
2021/12/08 00:46:08;;;;;;;28.25;15.73;;;;;;;-1.20;97.42;100436.63;5053881;28;20514;-82
2021/12/08 00:48:39;;;;;;;30.23;15.07;;;;;;;-1.21;97.34;100432.28;5070951;28;20045;-82
2021/12/08 00:51:07;;;;;;;25.58;13.65;;;;;;;-1.10;97.46;100447.81;5053848;28;20041;-83
2021/12/08 00:53:35;;;;;;;28.77;15.10;;;;;;;-1.11;96.68;100448.81;5071363;28;20055;-83
2021/12/08 00:56:04;;;;;;;27.00;13.50;;;;;;;-0.99;96.02;100454.41;5014556;28;1236315;-83
2021/12/08 00:58:32;;;;;;;23.48;13.30;;;;;;;-1.04;95.62;100446.13;5051641;28;20048;-83
2021/12/08 01:01:00;;;;;;;29.05;14.60;;;;;;;-1.00;94.76;100438.50;5062814;28;20085;-83
2021/12/08 01:03:28;;;;;;;26.00;13.77;;;;;;;-0.98;93.86;100431.88;5040416;28;20060;-83
2021/12/08 01:05:57;;;;;;;26.52;13.50;;;;;;;-0.70;92.71;100438.06;5071713;28;20530;-83
2021/12/08 01:08:28;;;;;;;26.80;14.10;;;;;;;-0.74;92.10;100432.28;5071474;28;20047;-83
2021/12/08 01:11:01;;;;;;;29.15;13.38;;;;;;;-0.70;91.53;100420.09;5053579;28;20052;-83
2021/12/08 01:13:29;;;;;;;27.60;14.20;;;;;;;-0.59;91.45;100424.00;5053785;28;20041;-83
2021/12/08 01:15:58;;;;;;;27.83;13.77;;;;;;;-0.71;91.56;100410.38;5071738;28;20044;-83
2021/12/08 01:18:29;;;;;;;26.10;13.63;;;;;;;-0.68;92.89;100409.94;5071846;28;20056;-83
2021/12/08 01:21:00;;;;;;;25.15;13.85;;;;;;;-0.73;92.90;100387.44;5071419;28;20067;-83
2021/12/08 01:23:29;;;;;;;29.10;14.77;;;;;;;-0.79;93.03;100374.84;5071489;28;20048;-83
2021/12/08 01:25:57;;;;;;;30.75;15.32;;;;;;;-0.72;92.90;100373.78;5071620;28;20071;-83
2021/12/08 01:28:25;;;;;;;25.90;14.98;;;;;;;-0.62;92.30;100365.28;5071217;28;20052;-84
2021/12/08 01:30:54;;;;;;;26.65;15.02;;;;;;;-0.46;90.95;100373.91;5071245;28;20048;-83
2021/12/08 01:33:24;;;;;;;28.00;14.10;;;;;;;-0.52;90.99;100362.16;5053844;28;20048;-83
2021/12/08 01:35:52;;;;;;;29.23;13.90;;;;;;;-0.36;90.39;100386.91;5071171;28;20410;-82
2021/12/08 01:38:21;;;;;;;23.95;11.73;;;;;;;-0.34;90.22;100360.66;5053052;28;20059;-83
2021/12/08 01:40:52;;;;;;;27.33;12.00;;;;;;;-0.10;89.18;100359.09;5071144;28;20040;-82
2021/12/08 01:43:26;;;;;;;21.95;11.65;;;;;;;-0.17;88.65;100355.59;5057772;28;20049;-82
2021/12/08 01:46:06;;;;;;;18.73;10.30;;;;;;;-0.14;88.30;100366.75;5072345;28;20055;-83
2021/12/08 01:48:37;;;;;;;20.33;11.48;;;;;;;-0.01;87.68;100338.97;5058864;28;20384;-83
2021/12/08 01:51:14;;;;;;;24.63;11.68;;;;;;;-0.03;87.55;100351.84;5070839;28;20044;-82
2021/12/08 01:53:48;;;;;;;19.02;9.85;;;;;;;-0.02;87.35;100342.72;5071164;28;20040;-82
2021/12/08 01:56:18;;;;;;;21.85;11.43;;;;;;;0.02;87.09;100343.09;5070743;28;20056;-82
2021/12/08 01:58:47;;;;;;;21.25;11.63;;;;;;;0.02;87.49;100350.34;5071364;28;20521;-82
2021/12/08 02:01:18;;;;;;;20.17;11.45;;;;;;;-0.03;88.13;100346.44;5070347;28;20052;-81
2021/12/08 02:03:46;;;;;;;17.65;11.27;;;;;;;0.06;88.08;100359.63;5039589;28;20064;-82
2021/12/08 02:06:17;;;;;;;21.52;10.60;;;;;;;0.08;87.16;100360.25;5071376;28;20068;-82
2021/12/08 02:08:48;;;;;;;22.83;10.40;;;;;;;0.21;87.54;100354.81;5071265;28;20060;-83
2021/12/08 02:11:17;;;;;;;23.73;11.00;;;;;;;0.29;87.04;100352.88;5071428;28;20045;-83
2021/12/08 02:13:46;;;;;;;18.77;10.48;;;;;;;0.24;86.70;100340.91;5070801;28;20039;-81
2021/12/08 02:16:15;;;;;;;16.88;9.88;;;;;;;0.33;87.93;100340.63;5071274;28;20502;-81
2021/12/08 02:18:50;;;;;;;18.45;10.57;;;;;;;0.57;86.42;100347.09;5070969;28;20044;-82
2021/12/08 02:21:27;;;;;;;21.75;9.60;;;;;;;0.55;85.43;100341.09;5071290;28;20506;-81
2021/12/08 02:23:58;;;;;;;18.25;9.30;;;;;;;0.55;86.01;100334.88;5071141;28;20044;-82
2021/12/08 02:26:28;;;;;;;18.80;9.80;;;;;;;0.74;85.01;100314.22;5046381;28;20049;-81
2021/12/08 02:29:00;;;;;;;18.05;10.05;;;;;;;1.05;83.88;100315.16;5065239;28;20045;-82
2021/12/08 02:31:47;;;;;;;16.45;9.27;;;;;;;0.98;82.49;100296.38;5050137;28;20044;-82
2021/12/08 02:48:12;;;;;;;21.65;10.07;;;;;;;0.62;84.57;100303.34;5069555;28;20059;-81
2021/12/08 02:50:43;;;;;;;13.48;9.15;;;;;;;0.42;84.97;100282.78;5070994;28;20055;-81
2021/12/08 02:53:14;;;;;;;15.82;9.43;;;;;;;0.42;84.91;100285.47;5070710;28;20047;-82
2021/12/08 02:55:43;;;;;;;17.35;9.85;;;;;;;0.49;85.19;100293.50;5042934;28;20124;-81
2021/12/08 02:58:12;;;;;;;20.15;9.73;;;;;;;0.38;84.85;100290.47;5067605;28;20049;-81
2021/12/08 03:00:45;;;;;;;15.90;9.70;;;;;;;0.46;85.41;100288.56;5070979;28;20045;-81
2021/12/08 03:03:15;;;;;;;18.42;10.52;;;;;;;0.46;86.28;100284.00;5058946;28;20040;-81
2021/12/08 03:05:43;;;;;;;20.33;10.10;;;;;;;0.52;86.19;100277.75;5069040;28;20099;-81
2021/12/08 03:08:13;;;;;;;27.42;10.65;;;;;;;0.70;85.28;100268.06;5070729;28;20044;-81
2021/12/08 03:10:50;;;;;;;17.77;10.90;;;;;;;0.83;85.05;100272.47;5070690;28;20071;-82
2021/12/08 03:13:39;;;;;;;14.73;9.60;;;;;;;0.84;84.58;100273.31;5073334;28;20052;-81
2021/12/08 03:16:09;;;;;;;22.10;10.23;;;;;;;0.75;83.98;100265.53;5074321;28;20056;-81
2021/12/08 03:18:40;;;;;;;16.17;9.43;;;;;;;0.78;85.91;100267.75;5074462;28;20041;-81
2021/12/08 03:21:10;;;;;;;18.50;9.52;;;;;;;0.68;84.81;100259.34;5074052;28;20041;-81
2021/12/08 03:23:52;;;;;;;21.85;9.88;;;;;;;0.56;84.61;100261.13;5074164;28;20123;-81
2021/12/08 03:26:27;;;;;;;15.30;9.45;;;;;;;0.62;83.62;100254.84;5073899;28;20394;-82
2021/12/08 03:29:04;;;;;;;16.08;9.05;;;;;;;1.04;82.10;100267.72;5074249;28;20052;-81
2021/12/08 03:31:40;;;;;;;18.23;9.90;;;;;;;0.80;83.16;100257.56;5061270;28;20037;-82
2021/12/08 03:34:08;;;;;;;21.95;10.43;;;;;;;0.79;83.45;100249.75;5073804;28;20055;-81
2021/12/08 03:36:36;;;;;;;16.80;9.23;;;;;;;0.83;83.83;100263.59;5055971;28;20052;-81
2021/12/08 03:39:05;;;;;;;14.25;8.93;;;;;;;0.88;83.43;100266.44;5073980;28;20395;-81
2021/12/08 03:41:34;;;;;;;15.48;8.73;;;;;;;0.87;82.97;100245.94;5073732;28;20045;-81
2021/12/08 03:44:04;;;;;;;17.70;8.93;;;;;;;1.11;81.47;100241.50;5073940;28;20056;-82
2021/12/08 03:46:39;;;;;;;18.52;9.73;;;;;;;1.37;81.24;100241.41;5073938;28;20041;-82
2021/12/08 03:49:12;;;;;;;20.15;9.52;;;;;;;1.35;81.28;100230.84;5073843;28;20052;-81
2021/12/08 03:51:41;;;;;;;17.63;8.60;;;;;;;1.37;81.69;100236.81;5073614;28;20044;-81
2021/12/08 03:54:11;;;;;;;13.07;8.57;;;;;;;1.31;81.03;100211.63;5073392;28;20049;-81
2021/12/08 03:56:39;;;;;;;17.73;9.23;;;;;;;1.07;81.81;100200.72;5073335;28;20394;-81
2021/12/08 03:59:07;;;;;;;17.35;8.93;;;;;;;1.07;82.22;100208.78;5073574;28;20518;-81
2021/12/08 04:01:35;;;;;;;14.95;8.52;;;;;;;1.03;81.68;100204.91;5073370;28;20585;-81
2021/12/08 04:04:07;;;;;;;13.52;8.05;;;;;;;1.15;80.58;100188.81;5059323;28;20044;-81
2021/12/08 04:07:12;;;;;;;14.82;8.65;;;;;;;1.07;80.34;100176.44;5073535;28;20052;-81
2021/12/08 04:09:39;;;;;;;15.05;8.50;;;;;;;1.28;80.54;100195.88;5070115;28;20056;-81
2021/12/08 04:12:15;;;;;;;12.73;8.23;;;;;;;1.17;81.43;100185.88;5073242;28;20048;-81
2021/12/08 04:14:52;;;;;;;12.07;7.35;;;;;;;1.49;79.86;100191.06;5073238;28;20098;-83
2021/12/08 04:17:26;;;;;;;17.45;9.18;;;;;;;1.38;81.12;100183.75;5069587;28;20479;-82
2021/12/08 04:19:55;;;;;;;14.43;7.55;;;;;;;1.23;82.12;100168.81;5073350;28;20041;-82
2021/12/08 04:22:29;;;;;;;14.93;8.50;;;;;;;1.13;82.34;100169.31;5055460;28;20049;-81
2021/12/08 04:24:58;;;;;;;;;;;;;;;1.14;83.49;100184.47;5056168;28;20388;-82
2021/12/08 04:27:30;;;;;;;15.52;8.23;;;;;;;1.09;83.99;100172.69;5054201;28;19920;-82
2021/12/08 04:29:59;;;;;;;14.25;8.18;;;;;;;1.15;83.84;100167.25;5052742;28;20396;-82
2021/12/08 04:32:32;;;;;;;12.10;7.82;;;;;;;1.14;83.06;100152.13;5052707;28;20041;-82
2021/12/08 04:35:04;;;;;;;15.18;7.78;;;;;;;1.33;82.82;100157.47;5051669;28;20503;-82
2021/12/08 04:37:36;;;;;;;14.98;8.43;;;;;;;1.51;83.17;100159.28;5053348;28;20048;-82
2021/12/08 04:40:46;;;;;;;12.63;7.95;;;;;;;1.47;83.90;100158.91;5061957;28;20048;-82
2021/12/08 04:43:23;;;;;;;14.75;7.75;;;;;;;1.64;82.40;100162.81;5052744;28;20048;-82
2021/12/08 04:46:30;;;;;;;15.68;8.85;;;;;;;1.70;83.82;100159.19;5052655;28;20049;-82
2021/12/08 04:49:21;;;;;;;13.50;8.30;;;;;;;1.71;82.56;100139.28;5051769;28;20045;-82
2021/12/08 04:52:15;;;;;;;13.75;8.35;;;;;;;1.73;83.68;100147.97;5052344;28;20041;-82
2021/12/08 05:03:40;;;;;;;14.52;8.02;;;;;;;1.58;84.61;100121.44;5052279;28;20064;-82
2021/12/08 05:08:41;;;;;;;16.77;7.85;;;;;;;1.85;79.76;100127.22;5055257;28;20056;-82
2021/12/08 05:11:16;;;;;;;15.70;7.22;;;;;;;1.87;79.09;100119.69;5051964;28;20057;-82
2021/12/08 05:13:46;;;;;;;10.65;6.57;;;;;;;2.18;77.42;100138.50;5051680;28;20392;-82
2021/12/08 05:16:17;;;;;;;10.95;6.93;;;;;;;2.15;76.03;100120.91;5050887;28;20049;-82
2021/12/08 05:18:48;;;;;;;10.85;6.35;;;;;;;2.33;75.39;100131.78;5051814;28;20053;-82
2021/12/08 05:21:35;;;;;;;13.70;6.60;;;;;;;2.40;73.68;100119.81;5052706;28;20060;-82
2021/12/08 05:24:14;;;;;;;11.75;6.13;;;;;;;2.64;74.82;100122.47;5051601;28;20052;-82
2021/12/08 05:26:56;;;;;;;11.63;5.70;;;;;;;2.63;74.48;100117.31;5053149;28;20052;-82
2021/12/08 05:29:32;;;;;;;10.80;6.25;;;;;;;2.80;71.98;100114.69;5054224;28;20049;-82
2021/12/08 05:32:02;;;;;;;9.05;5.50;;;;;;;2.74;73.12;100094.84;5055544;28;20044;-82
2021/12/08 05:34:31;;;;;;;8.63;5.80;;;;;;;2.80;73.13;100101.19;5058004;28;20045;-82
2021/12/08 05:37:00;;;;;;;10.75;5.80;;;;;;;2.79;73.60;100107.66;5051370;28;20116;-82
2021/12/08 05:39:29;;;;;;;8.45;5.18;;;;;;;2.82;73.32;100104.47;5051655;28;20044;-82
2021/12/08 05:42:14;;;;;;;13.27;5.88;;;;;;;2.92;73.77;100101.97;5051557;28;20044;-82
2021/12/08 05:44:42;;;;;;;;;;;;;;;3.26;72.45;100119.31;5061106;28;20799;-82
2021/12/08 05:47:15;;;;;;;9.10;5.88;;;;;;;3.27;73.21;100134.53;5051474;28;19932;-82
2021/12/08 05:49:44;;;;;;;7.67;4.83;;;;;;;3.27;72.46;100107.47;5051279;28;20041;-82
2021/12/08 05:52:13;;;;;;;10.57;5.65;;;;;;;3.39;72.95;100127.16;5056119;28;20045;-82
2021/12/08 05:54:44;;;;;;;8.90;5.88;;;;;;;3.40;72.45;100126.09;5056863;28;20044;-83
2021/12/08 05:57:26;;;;;;;13.10;5.70;;;;;;;3.39;73.34;100127.16;5051344;28;20048;-83
2021/12/08 05:59:56;;;;;;;9.13;4.97;;;;;;;3.46;71.67;100106.19;5050180;28;20041;-83
2021/12/08 06:02:31;;;;;;;8.25;5.10;;;;;;;3.40;72.75;100101.75;5050793;28;20037;-83
2021/12/08 06:05:01;;;;;;;8.63;5.25;;;;;;;3.46;72.74;100108.06;5046470;28;20396;-83
2021/12/08 06:07:29;;;;;;;8.40;5.38;;;;;;;3.52;72.02;100104.38;5071267;28;20056;-83
2021/12/08 06:10:02;;;;;;;8.60;5.32;;;;;;;3.74;71.09;100107.19;5053713;28;20051;-83
2021/12/08 06:12:30;;;;;;;13.65;5.90;;;;;;;3.84;71.33;100103.84;5071178;28;20036;-82
2021/12/08 06:14:59;;;;;;;10.85;5.57;;;;;;;3.96;71.91;100098.31;5071192;28;20040;-83
2021/12/08 06:17:30;;;;;;;10.10;5.63;;;;;;;4.10;71.28;100093.38;5071381;28;20411;-83
2021/12/08 06:19:59;;;;;;;9.23;5.38;;;;;;;4.26;70.22;100102.53;5070317;28;20037;-83
2021/12/08 06:22:28;;;;;;;9.63;5.78;;;;;;;4.31;70.44;100093.69;5070874;28;20115;-82
2021/12/08 06:24:57;;;;;;;11.60;5.78;;;;;;;4.23;71.25;100073.25;5053961;28;20047;-83
2021/12/08 06:27:28;;;;;;;10.23;5.35;;;;;;;4.38;71.01;100088.06;5055018;28;20052;-83
2021/12/08 06:29:57;;;;;;;10.23;6.45;;;;;;;4.40;69.62;100066.97;5072650;28;20056;-82
2021/12/08 06:32:26;;;;;;;12.25;5.40;;;;;;;4.43;70.49;100066.47;5073244;28;20499;-83
2021/12/08 06:34:58;;;;;;;11.48;7.03;;;;;;;4.41;70.62;100065.91;5073804;28;20049;-83
2021/12/08 06:37:32;;;;;;;9.95;5.63;;;;;;;4.29;70.09;100053.28;5071284;28;20115;-83
2021/12/08 06:40:10;;;;;;;12.18;6.20;;;;;;;4.49;70.51;100067.38;5058039;28;20604;-82
2021/12/08 06:42:40;;;;;;;11.32;6.75;;;;;;;4.47;70.46;100051.34;5061277;28;20395;-82
2021/12/08 06:45:13;;;;;;;11.18;6.10;;;;;;;4.51;70.13;100057.09;5070914;28;20041;-82
2021/12/08 06:47:42;;;;;;;10.97;6.37;;;;;;;4.63;69.80;100059.66;5055403;28;20426;-82
2021/12/08 06:50:19;;;;;;;10.15;6.50;;;;;;;4.56;69.44;100040.88;5075327;28;20048;-82
2021/12/08 06:52:55;;;;;;;8.73;5.88;;;;;;;4.67;70.30;100041.81;5057209;28;20045;-82
2021/12/08 06:55:28;;;;;;;9.65;5.90;;;;;;;4.71;70.06;100043.75;5074380;28;20048;-83
2021/12/08 06:58:14;;;;;;;11.73;6.40;;;;;;;4.69;69.97;100026.94;5074488;28;20044;-82
2021/12/08 07:01:30;;;;;;;11.13;6.80;;;;;;;4.76;70.30;100036.75;5074624;28;20049;-83
2021/12/08 07:04:11;;;;;;;12.27;6.90;;;;;;;4.90;69.90;100029.06;4957035;28;20054;-82
2021/12/08 07:06:48;;;;;;;10.93;6.00;;;;;;;4.87;70.25;100010.56;5071278;28;20059;-82
2021/12/08 07:09:24;;;;;;;10.82;6.63;;;;;;;4.88;70.03;100009.53;5074454;28;20047;-82
2021/12/08 07:11:54;;;;;;;13.35;6.65;;;;;;;4.96;70.46;100011.75;5074168;28;20048;-77
2021/12/08 07:14:25;;;;;;;11.10;7.00;;;;;;;5.04;69.12;99997.72;5064016;28;20053;-77
2021/12/08 07:16:57;;;;;;;12.57;6.88;;;;;;;5.11;68.26;99997.53;5054120;28;20041;-76
2021/12/08 07:19:41;;;;;;;12.27;5.85;;;;;;;5.28;67.13;100000.09;5050562;28;20040;-77
2021/12/08 07:22:14;;;;;;;10.95;6.57;;;;;;;5.34;67.23;100000.97;5054155;28;20499;-77
2021/12/08 07:24:46;;;;;;;10.17;6.03;;;;;;;5.21;67.50;99981.34;5066459;28;20396;-76
2021/12/08 07:27:20;;;;;;;11.77;6.63;;;;;;;5.14;67.90;99979.91;5066455;28;20040;-76
2021/12/08 07:29:48;;;;;;;;;;;;;;;5.20;68.36;99993.28;5055309;28;20037;-77
2021/12/08 07:32:21;;;;;;;12.23;7.20;;;;;;;5.11;68.36;99976.66;5053694;28;19928;-77
2021/12/08 07:34:52;;;;;;;14.88;6.78;;;;;;;5.25;67.80;99989.78;5053853;28;20041;-76
2021/12/08 07:37:26;;;;;;;12.20;7.03;;;;;;;5.27;68.15;100000.38;5064560;28;20395;-76
2021/12/08 07:40:10;;;;;;;17.40;6.50;;;;;;;5.14;68.37;99985.34;5054377;28;20487;-76
2021/12/08 07:42:47;;;;;;;13.00;6.45;;;;;;;5.13;68.44;99989.13;5053700;28;20411;-76
2021/12/08 07:45:23;;;;;;;13.52;6.72;;;;;;;5.25;67.71;99990.56;5054328;28;20055;-76
2021/12/08 07:47:53;;;;;;;14.73;7.00;;;;;;;5.38;67.57;99992.03;5053921;28;20056;-76
2021/12/08 07:50:45;;;;;;;10.82;6.43;;;;;;;5.41;67.01;99988.00;5053081;28;20052;-76
2021/12/08 07:53:16;;;;;;;10.35;5.88;;;;;;;5.51;66.46;99989.97;5060930;28;20045;-77
2021/12/08 07:55:48;;;;;;;13.07;6.65;;;;;;;5.54;66.95;99981.31;5042106;28;20415;-76
2021/12/08 07:58:18;;;;;;;18.33;7.53;;;;;;;5.57;66.63;99975.34;5058889;28;20040;-77
2021/12/08 08:01:18;;;;;;;12.80;6.78;;;;;;;5.56;67.07;99970.19;5067587;28;20032;-76
2021/12/08 08:03:47;;;;;;;11.85;6.03;;;;;;;5.49;67.60;99965.00;5055791;28;20051;-76
2021/12/08 08:06:47;;;;;;;12.98;6.43;;;;;;;5.54;67.60;99956.06;5071079;28;20051;-77
2021/12/08 08:09:21;;;;;;;13.98;7.07;;;;;;;5.69;66.28;99958.03;5048745;28;20609;-76
2021/12/08 08:11:55;;;;;;;;;;;;;;;5.69;67.26;99936.31;5054813;28;20048;-76
2021/12/08 08:14:31;;;;;;;12.48;6.15;;;;;;;5.51;67.95;99919.41;5065557;28;19921;-77
2021/12/08 08:17:00;;;;;;;13.82;6.72;;;;;;;5.53;67.95;99932.72;5062944;28;20041;-76
2021/12/08 08:19:31;;;;;;;12.00;6.63;;;;;;;5.54;68.28;99932.47;5052667;28;20048;-76
2021/12/08 08:22:11;;;;;;;10.73;6.82;;;;;;;5.64;67.79;99942.56;5052993;28;20484;-77
2021/12/08 08:24:40;;;;;;;9.95;5.80;;;;;;;5.68;67.55;99932.81;5059623;28;20048;-78
2021/12/08 08:27:11;;;;;;;12.55;6.78;;;;;;;5.63;67.79;99920.00;5047280;28;20041;-78
2021/12/08 08:29:39;;;;;;;11.32;6.38;;;;;;;5.57;69.27;99895.84;5057666;28;20041;-76
2021/12/08 08:32:19;;;;;;;13.20;6.85;;;;;;;5.43;68.13;99895.47;5060388;28;20407;-76
2021/12/08 08:34:51;;;;;;;10.82;6.25;;;;;;;5.42;68.07;99913.66;5064785;28;20044;-77
2021/12/08 08:37:20;;;;;;;12.82;6.38;;;;;;;5.34;70.04;99900.56;5048584;28;20041;-78
2021/12/08 08:39:52;;;;;;;13.10;7.75;;;;;;;5.38;70.42;99891.66;5063406;28;20044;-78
2021/12/08 08:42:25;;;;;;;10.10;5.50;;;;;;;5.54;70.15;99901.78;5067065;28;20040;-78
2021/12/08 08:45:01;;;;;;;10.07;5.90;;;;;;;5.38;71.48;99897.06;5056883;28;20045;-77
2021/12/08 08:47:42;;;;;;;10.45;5.78;;;;;;;5.26;71.58;99888.31;5060006;28;20049;-77
2021/12/08 08:50:16;;;;;;;10.90;5.82;;;;;;;5.35;72.24;99881.34;5059054;28;20045;-75
2021/12/08 08:52:51;;;;;;;14.25;6.75;;;;;;;5.35;72.36;99862.34;5056759;28;20060;-76
2021/12/08 08:56:11;;;;;;;11.95;6.65;;;;;;;5.27;73.54;99868.25;5052287;28;20045;-75
2021/12/08 08:58:43;;;;;;;11.90;6.40;;;;;;;5.40;74.01;99882.41;5053024;28;20048;-75
2021/12/08 09:01:24;;;;;;;11.98;6.15;;;;;;;5.30;74.69;99870.44;5059452;28;20049;-76
2021/12/08 09:04:01;;;;;;;12.75;7.15;;;;;;;5.15;74.34;99867.63;5046556;28;20056;-75
2021/12/08 09:06:34;;;;;;;11.68;6.47;;;;;;;5.05;75.00;99858.34;5047547;28;20036;-76
2021/12/08 09:09:08;;;;;;;13.88;6.38;;;;;;;4.94;75.43;99862.88;5072310;28;20048;-76
2021/12/08 09:11:49;;;;;;;12.35;5.93;;;;;;;4.87;75.13;99861.44;5071682;28;20040;-76
2021/12/08 09:14:25;;;;;;;12.15;5.95;;;;;;;4.78;76.79;99861.09;5072297;28;20052;-76
2021/12/08 09:17:03;;;;;;;14.52;6.63;;;;;;;4.90;76.42;99860.94;5072432;28;20398;-76
2021/12/08 09:20:52;;;;;;;11.30;5.57;;;;;;;4.86;77.50;99855.22;5062528;28;20048;-75
2021/12/08 13:43:51;;;;;;;0.40;0.40;;;;;;;4.12;100.00;99437.81;5096610;27;20398;-79
2021/12/08 13:46:43;;;;;;;1.35;0.20;;;;;;;4.16;100.00;99434.31;5051225;28;20044;-80
2021/12/08 13:49:18;;;;;;;0.30;0.30;;;;;;;4.18;100.00;99415.09;5092940;28;20072;-80
2021/12/08 13:52:08;;;;;;;0.90;0.32;;;;;;;4.29;100.00;99405.91;5056238;28;20045;-79
2021/12/08 13:54:41;;;;;;;0.60;0.50;;;;;;;4.24;100.00;99384.22;5098464;28;20063;-81
2021/12/08 13:57:29;;;;;;;2.17;0.63;;;;;;;4.39;100.00;99379.91;5061989;28;20038;-80
2021/12/08 14:00:18;;;;;;;1.17;0.70;;;;;;;4.35;100.00;99390.47;5066271;28;20042;-80
2021/12/08 14:02:58;;;;;;;2.10;0.93;;;;;;;4.24;100.00;99386.94;5099488;28;20645;-81
2021/12/08 14:05:37;;;;;;;0.60;0.30;;;;;;;4.17;100.00;99389.09;5065096;28;20044;-80
2021/12/08 14:08:12;;;;;;;1.85;0.98;;;;;;;4.26;100.00;99381.25;5064395;28;20044;-81
2021/12/08 14:10:43;;;;;;;5.53;2.90;;;;;;;4.33;100.00;99368.28;5067584;28;20033;-81
2021/12/08 14:13:16;;;;;;;1.52;1.33;;;;;;;4.36;100.00;99367.75;5055023;28;20060;-80
2021/12/08 14:15:44;;;;;;;2.70;1.30;;;;;;;4.36;100.00;99375.88;5063592;28;20049;-81
2021/12/08 14:18:25;;;;;;;6.68;4.55;;;;;;;4.24;100.00;99361.75;5060651;28;20053;-81
2021/12/08 14:20:53;;;;;;;6.43;3.92;;;;;;;4.29;100.00;99357.16;5063735;28;20047;-81
2021/12/08 14:23:24;;;;;;;1.95;1.50;;;;;;;4.30;100.00;99355.25;5064143;28;20049;-80
2021/12/08 14:26:03;;;;;;;2.03;1.83;;;;;;;4.26;100.00;99348.78;5063773;28;20048;-81
2021/12/08 14:28:41;;;;;;;8.95;4.10;;;;;;;4.23;100.00;99350.13;5065793;28;20041;-81
2021/12/08 14:31:22;;;;;;;5.00;2.90;;;;;;;4.23;100.00;99343.88;5081599;28;20484;-80
2021/12/08 14:34:02;;;;;;;2.75;1.70;;;;;;;4.25;100.00;99341.72;5065492;28;20039;-81
2021/12/08 14:36:41;;;;;;;2.13;1.48;;;;;;;4.36;100.00;99326.28;5060368;28;20067;-82
2021/12/08 14:39:12;;;;;;;0.55;0.30;;;;;;;4.34;100.00;99314.94;5064871;28;20387;-81
2021/12/08 14:41:42;;;;;;;0.90;0.88;;;;;;;4.35;100.00;99308.44;5064921;28;20052;-81
2021/12/08 14:44:17;;;;;;;0.73;0.73;;;;;;;4.37;100.00;99306.25;5065550;28;20047;-82
2021/12/08 14:46:48;;;;;;;1.80;0.70;;;;;;;4.36;99.85;99289.19;5065640;28;20044;-81
2021/12/08 14:49:19;;;;;;;0.35;0.35;;;;;;;4.49;99.38;99293.25;5063450;28;20049;-82
2021/12/08 14:51:54;;;;;;;1.55;0.70;;;;;;;4.60;97.71;99293.25;5064088;28;20402;-82
2021/12/08 14:54:28;;;;;;;1.00;0.55;;;;;;;4.67;97.22;99282.94;5045598;28;20045;-81
2021/12/08 14:57:26;;;;;;;0.30;0.30;;;;;;;4.70;96.88;99296.75;5044292;28;20045;-81
2021/12/08 15:00:08;;;;;;;0.77;0.60;;;;;;;4.67;96.10;99278.34;5047033;28;20120;-81
2021/12/08 15:02:43;;;;;;;0.73;0.50;;;;;;;4.65;97.56;99275.06;5047602;28;20831;-81
2021/12/08 15:05:18;;;;;;;0.80;0.80;;;;;;;4.75;96.28;99282.41;5077938;28;20049;-81
2021/12/08 15:07:49;;;;;;;0.40;0.40;;;;;;;4.81;94.89;99284.03;5082509;28;20051;-81
2021/12/08 15:10:23;;;;;;;0.35;0.35;;;;;;;4.93;92.29;99280.19;5040347;28;20075;-81
2021/12/08 15:13:15;;;;;;;1.10;0.95;;;;;;;5.09;90.69;99270.13;5078078;28;20045;-80
2021/12/08 15:15:56;;;;;;;0.88;0.60;;;;;;;5.06;92.03;99271.50;5051376;28;20045;-81
2021/12/08 15:18:29;;;;;;;0.88;0.63;;;;;;;5.04;91.94;99268.22;5049583;28;20041;-81
2021/12/08 15:21:11;;;;;;;1.00;0.70;;;;;;;5.08;91.48;99274.75;5047957;28;20395;-80
2021/12/08 15:23:50;;;;;;;0.43;0.40;;;;;;;5.11;91.08;99257.94;5074859;28;20045;-81
2021/12/08 15:26:19;;;;;;;0.47;0.30;;;;;;;5.15;89.62;99243.81;5048044;28;20049;-81
2021/12/08 15:28:48;;;;;;;0.32;0.32;;;;;;;5.15;89.89;99243.81;5052038;28;20056;-80
2021/12/08 15:31:17;;;;;;;0.20;0.20;;;;;;;5.17;88.81;99244.31;5048070;28;20038;-80
2021/12/08 15:33:48;;;;;;;0.50;0.50;;;;;;;5.16;89.06;99229.97;5051381;28;20056;-76
2021/12/08 15:36:22;;;;;;;0.82;0.40;;;;;;;5.18;88.70;99237.84;5047534;28;20049;-75
2021/12/08 15:38:53;;;;;;;0.43;0.40;;;;;;;5.13;89.98;99248.69;5046512;28;20510;-76
2021/12/08 15:41:29;;;;;;;2.00;0.80;;;;;;;5.06;90.46;99244.38;5053046;28;20050;-75
2021/12/08 15:44:07;;;;;;;3.42;1.88;;;;;;;5.03;90.48;99217.81;5040113;28;20390;-78
2021/12/08 15:46:36;;;;;;;3.63;2.00;;;;;;;5.05;91.84;99221.06;5053119;28;20059;-78
2021/12/08 15:49:06;;;;;;;2.60;1.83;;;;;;;5.00;92.77;99221.09;5053348;28;20041;-77
2021/12/08 15:51:40;;;;;;;3.42;1.42;;;;;;;4.93;93.12;99220.53;5053587;28;20049;-77
2021/12/08 15:54:09;;;;;;;0.75;0.43;;;;;;;4.90;94.08;99191.28;5053734;28;20399;-76
2021/12/08 15:57:04;;;;;;;1.75;0.73;;;;;;;4.91;93.59;99184.78;5053307;28;20055;-78
2021/12/08 15:59:39;;;;;;;1.75;0.98;;;;;;;4.86;93.07;99193.75;5053563;28;20053;-76
2021/12/08 16:02:22;;;;;;;0.22;0.22;;;;;;;4.92;91.51;99178.25;5052805;28;20053;-77
2021/12/08 16:04:54;;;;;;;1.17;0.52;;;;;;;4.92;92.64;99178.25;5052301;28;20056;-78
2021/12/08 16:07:49;;;;;;;1.23;1.08;;;;;;;4.94;93.52;99189.66;5051456;28;20049;-77
2021/12/08 16:10:20;;;;;;;3.67;1.80;;;;;;;4.89;94.75;99184.25;5053131;28;20048;-76
2021/12/08 16:13:13;;;;;;;1.35;1.17;;;;;;;4.90;94.00;99189.41;5053237;28;20041;-77
2021/12/08 16:15:51;;;;;;;1.70;0.57;;;;;;;4.97;93.38;99200.75;5053151;28;20056;-77
2021/12/08 16:18:23;;;;;;;0.80;0.50;;;;;;;5.03;93.24;99220.50;5052905;28;20423;-77
2021/12/08 16:20:53;;;;;;;1.05;0.95;;;;;;;5.05;93.19;99209.41;5052849;28;20047;-77
2021/12/08 16:23:21;;;;;;;0.65;0.55;;;;;;;5.10;91.33;99210.19;5053339;28;20053;-78
2021/12/08 16:25:50;;;;;;;3.85;1.48;;;;;;;5.09;92.42;99211.28;5051060;28;20120;-78
2021/12/08 16:28:19;;;;;;;1.27;1.13;;;;;;;5.09;93.50;99213.19;5051728;28;20045;-77
2021/12/08 16:30:48;;;;;;;2.10;1.58;;;;;;;5.15;92.41;99206.66;5052583;28;20510;-77
2021/12/08 16:33:16;;;;;;;6.20;2.28;;;;;;;5.07;93.58;99210.75;5052947;28;20048;-77
2021/12/08 16:35:44;;;;;;;3.13;1.88;;;;;;;5.00;94.17;99198.56;5052341;28;20573;-77
2021/12/08 16:38:13;;;;;;;1.25;1.15;;;;;;;4.90;94.42;99175.84;5052675;28;20400;-77
2021/12/08 16:43:16;;;;;;;1.42;1.25;;;;;;;4.93;95.72;99178.00;5052374;28;20075;-77
2021/12/08 16:45:48;;;;;;;1.60;0.88;;;;;;;5.01;94.58;99163.06;5052133;28;20053;-77
2021/12/08 16:48:23;;;;;;;0.90;0.90;;;;;;;4.95;94.94;99170.38;5052520;28;20049;-77
2021/12/08 16:50:52;;;;;;;1.85;0.80;;;;;;;5.10;93.40;99193.91;5052400;28;20048;-77
2021/12/08 16:53:20;;;;;;;0.65;0.60;;;;;;;5.05;94.15;99183.13;5052492;28;20041;-78